createdAt,value
2023-02-13T00:02:12.466Z,18.20
2023-02-13T00:04:59.118Z,18.63
2023-02-13T00:07:45.725Z,17.95
2023-02-13T00:10:33.771Z,16.80
2023-02-13T00:13:20.516Z,16.55
2023-02-13T00:16:07.446Z,16.55
2023-02-13T00:18:54.356Z,16.85
2023-02-13T00:21:40.968Z,17.38
2023-02-13T00:24:27.501Z,15.75
2023-02-13T00:27:15.632Z,16.08
2023-02-13T00:30:02.393Z,15.85
2023-02-13T00:32:49.131Z,15.15
2023-02-13T00:35:35.779Z,15.65
2023-02-13T00:38:22.312Z,15.52
2023-02-13T00:41:09.484Z,15.90
2023-02-13T00:43:57.696Z,15.88
2023-02-13T00:46:44.808Z,16.10
2023-02-13T00:49:31.550Z,15.68
2023-02-13T00:52:19.036Z,16.30
2023-02-13T00:55:06.031Z,14.90
2023-02-13T00:57:52.618Z,16.60
2023-02-13T01:00:40.388Z,15.00
2023-02-13T01:03:27.651Z,15.05
2023-02-13T01:06:14.156Z,14.60
2023-02-13T01:09:00.710Z,15.40
2023-02-13T01:11:47.183Z,14.43
2023-02-13T01:14:34.122Z,15.02
2023-02-13T01:17:21.840Z,13.80
2023-02-13T01:20:09.367Z,14.48
2023-02-13T01:22:56.182Z,16.10
2023-02-13T01:25:43.127Z,15.13
2023-02-13T01:28:29.992Z,15.93
2023-02-13T01:31:17.013Z,14.43
2023-02-13T01:34:04.728Z,15.20
2023-02-13T01:36:51.344Z,16.23
2023-02-13T01:39:37.971Z,16.05
2023-02-13T01:42:27.471Z,15.48
2023-02-13T01:45:24.765Z,15.85
2023-02-13T01:48:17.206Z,14.77
2023-02-13T01:51:09.559Z,15.55
2023-02-13T01:54:01.561Z,15.52
2023-02-13T01:56:52.759Z,14.98
2023-02-13T01:59:44.213Z,15.23
2023-02-13T02:02:35.683Z,15.77
2023-02-13T02:05:25.423Z,14.93
2023-02-13T02:08:14.946Z,15.00
2023-02-13T02:11:10.764Z,16.35
2023-02-13T02:13:58.978Z,17.92
2023-02-13T02:16:54.138Z,15.73
2023-02-13T02:19:50.442Z,15.57
2023-02-13T02:23:00.065Z,17.00
2023-02-13T02:29:02.703Z,15.90
2023-02-13T02:32:30.548Z,15.68
2023-02-13T02:35:25.861Z,16.20
2023-02-13T02:38:30.880Z,16.55
2023-02-13T02:41:41.106Z,16.80
2023-02-13T02:44:44.560Z,15.73
2023-02-13T02:48:00.378Z,16.13
2023-02-13T02:50:52.761Z,16.70
2023-02-13T02:53:45.075Z,15.82
2023-02-13T02:56:38.658Z,16.10
2023-02-13T02:59:46.170Z,16.15
2023-02-13T03:02:53.132Z,16.73
2023-02-13T03:06:01.872Z,16.73
2023-02-13T03:09:12.782Z,17.33
2023-02-13T03:12:17.700Z,16.48
2023-02-13T03:15:04.567Z,16.67
2023-02-13T03:18:09.923Z,16.38
2023-02-13T03:21:24.513Z,18.23
2023-02-13T03:24:18.559Z,17.13
2023-02-13T03:27:12.775Z,15.98
2023-02-13T03:30:07.896Z,16.52
2023-02-13T03:33:06.521Z,15.88
2023-02-13T03:36:21.016Z,16.33
2023-02-13T03:39:13.761Z,16.25
2023-02-13T03:42:04.141Z,16.30
2023-02-13T03:45:10.402Z,16.77
2023-02-13T03:48:00.672Z,15.57
2023-02-13T03:50:46.208Z,16.15
2023-02-13T03:53:35.793Z,16.90
2023-02-13T03:56:42.210Z,17.42
2023-02-13T03:59:33.535Z,16.35
2023-02-13T04:02:26.707Z,16.70
2023-02-13T04:05:19.383Z,16.05
2023-02-13T04:08:06.181Z,16.95
2023-02-13T04:10:59.708Z,16.17
2023-02-13T04:13:53.060Z,17.15
2023-02-13T04:16:42.264Z,16.88
2023-02-13T04:19:29.058Z,17.05
2023-02-13T04:22:16.888Z,16.90
2023-02-13T04:25:03.573Z,17.05
2023-02-13T04:27:50.214Z,15.73
2023-02-13T04:30:36.742Z,16.60
2023-02-13T04:33:23.512Z,17.13
2023-02-13T04:36:10.600Z,16.73
2023-02-13T04:38:58.317Z,16.67
2023-02-13T04:41:44.882Z,18.50
2023-02-13T04:44:31.599Z,16.20
2023-02-13T04:47:17.989Z,17.88
2023-02-13T04:50:04.863Z,16.55
2023-02-13T04:52:54.219Z,17.48
2023-02-13T04:55:41.853Z,17.50
2023-02-13T04:58:28.485Z,17.55
2023-02-13T05:01:15.421Z,18.27
2023-02-13T05:04:01.934Z,17.30
2023-02-13T05:06:48.928Z,16.73
2023-02-13T05:09:35.493Z,17.75
2023-02-13T05:12:23.439Z,17.52
2023-02-13T05:15:10.906Z,17.10
2023-02-13T05:18:00.408Z,17.83
2023-02-13T05:21:07.089Z,19.35
2023-02-13T05:23:52.654Z,16.48
2023-02-13T05:26:38.938Z,18.27
2023-02-13T05:29:26.690Z,18.95
2023-02-13T05:32:13.362Z,18.67
2023-02-13T05:34:59.769Z,20.00
2023-02-13T05:37:46.346Z,18.42
2023-02-13T05:40:32.769Z,18.15
2023-02-13T05:43:20.384Z,18.70
2023-02-13T05:46:10.641Z,19.98
2023-02-13T05:51:43.625Z,18.27
2023-02-13T05:54:30.140Z,18.50
2023-02-13T05:57:16.968Z,18.83
2023-02-13T06:00:04.167Z,18.38
2023-02-13T06:02:53.535Z,18.95
2023-02-13T06:05:40.011Z,19.52
2023-02-13T06:08:27.450Z,19.73
2023-02-13T06:11:14.005Z,19.63
2023-02-13T06:14:00.522Z,20.00
2023-02-13T06:16:47.137Z,20.98
2023-02-13T06:19:35.099Z,21.00
2023-02-13T06:22:21.719Z,20.52
2023-02-13T06:25:08.681Z,20.67
2023-02-13T06:27:55.917Z,20.38
2023-02-13T06:30:42.519Z,20.02
2023-02-13T06:33:29.193Z,21.10
2023-02-13T06:36:16.964Z,20.02
2023-02-13T06:39:04.037Z,20.55
2023-02-13T06:41:50.896Z,21.40
2023-02-13T06:44:37.433Z,22.50
2023-02-13T06:47:24.134Z,21.40
2023-02-13T06:50:13.053Z,21.77
2023-02-13T06:53:01.828Z,20.95
2023-02-13T06:55:48.638Z,21.35
2023-02-13T06:58:35.704Z,22.02
2023-02-13T07:01:22.565Z,22.45
2023-02-13T07:04:09.447Z,21.23
2023-02-13T07:06:56.979Z,22.73
2023-02-13T07:09:44.822Z,25.63
2023-02-13T07:12:34.024Z,26.00
2023-02-13T07:15:20.678Z,27.33
2023-02-13T07:18:07.717Z,28.67
2023-02-13T07:20:54.339Z,26.80
2023-02-13T07:23:40.943Z,24.90
2023-02-13T07:26:29.635Z,25.20
2023-02-13T07:29:16.043Z,25.05
2023-02-13T07:32:02.532Z,25.08
2023-02-13T07:35:00.811Z,25.08
2023-02-13T07:37:48.678Z,23.47
2023-02-13T07:40:35.208Z,25.55
2023-02-13T07:43:23.442Z,26.08
2023-02-13T07:46:10.796Z,25.40
2023-02-13T07:48:57.459Z,27.80
2023-02-13T07:51:43.960Z,25.33
2023-02-13T07:54:30.456Z,26.48
2023-02-13T07:57:17.972Z,26.17
2023-02-13T08:00:07.687Z,26.15
2023-02-13T08:03:00.152Z,27.50
2023-02-13T08:05:49.693Z,26.42
2023-02-13T08:08:38.312Z,26.77
2023-02-13T08:11:47.120Z,27.02
2023-02-13T08:14:33.685Z,26.63
2023-02-13T08:17:21.757Z,28.38
2023-02-13T08:20:10.247Z,27.30
2023-02-13T08:23:03.848Z,26.42
2023-02-13T08:25:50.798Z,27.55
2023-02-13T08:28:38.062Z,26.05
2023-02-13T08:31:25.024Z,26.20
2023-02-13T08:34:12.961Z,25.63
2023-02-13T08:36:59.475Z,25.75
2023-02-13T08:39:46.285Z,24.85
2023-02-13T08:42:33.056Z,25.35
2023-02-13T08:45:20.263Z,24.60
2023-02-13T08:48:07.573Z,23.42
2023-02-13T08:50:56.122Z,22.52
2023-02-13T08:53:43.477Z,22.35
2023-02-13T08:56:30.137Z,23.27
2023-02-13T08:59:16.992Z,21.95
2023-02-13T09:02:04.330Z,21.67
2023-02-13T09:04:50.862Z,21.75
2023-02-13T09:07:38.736Z,21.42
2023-02-13T09:10:25.337Z,21.75
2023-02-13T09:13:11.860Z,22.50
2023-02-13T09:16:01.458Z,22.70
2023-02-13T09:18:48.382Z,20.40
2023-02-13T09:21:34.786Z,21.08
2023-02-13T09:24:22.759Z,20.23
2023-02-13T09:27:09.510Z,20.65
2023-02-13T09:29:56.169Z,20.35
2023-02-13T09:32:42.964Z,20.88
2023-02-13T09:35:30.178Z,19.48
2023-02-13T09:38:16.893Z,19.88
2023-02-13T09:41:08.723Z,19.25
2023-02-13T09:44:00.206Z,18.67
2023-02-13T09:46:47.542Z,20.50
2023-02-13T09:49:38.294Z,19.40
2023-02-13T09:52:33.533Z,18.13
2023-02-13T09:55:22.792Z,18.15
2023-02-13T09:58:19.201Z,18.87
2023-02-13T10:01:12.804Z,17.75
2023-02-13T10:04:16.113Z,18.38
2023-02-13T10:07:19.146Z,16.73
2023-02-13T10:10:19.992Z,16.88
2023-02-13T10:13:32.204Z,18.70
2023-02-13T10:16:22.223Z,17.38
2023-02-13T10:19:20.276Z,18.17
2023-02-13T10:22:12.964Z,18.25
2023-02-13T10:25:05.529Z,18.75
2023-02-13T10:27:56.155Z,18.83
2023-02-13T10:33:41.972Z,17.23
2023-02-13T10:36:32.340Z,16.77
2023-02-13T10:39:26.368Z,15.93
2023-02-13T10:42:23.939Z,15.80
2023-02-13T10:45:33.930Z,17.05
2023-02-13T10:48:48.815Z,16.02
2023-02-13T10:51:44.332Z,15.30
2023-02-13T10:55:07.628Z,14.95
2023-02-13T10:58:07.763Z,16.08
2023-02-13T11:00:57.208Z,15.43
2023-02-13T11:03:47.919Z,16.48
2023-02-13T11:06:37.756Z,16.05
2023-02-13T11:09:25.154Z,16.70
2023-02-13T11:12:26.085Z,16.60
2023-02-13T11:15:25.548Z,16.88
2023-02-13T11:18:20.109Z,16.80
2023-02-13T11:21:12.268Z,16.27
2023-02-13T11:23:59.028Z,17.15
2023-02-13T11:26:45.759Z,15.70
2023-02-13T11:29:35.138Z,15.48
2023-02-13T11:32:25.543Z,15.48
2023-02-13T11:35:28.731Z,16.20
2023-02-13T11:38:24.122Z,15.65
2023-02-13T11:41:13.306Z,15.68
2023-02-13T11:44:02.312Z,14.30
2023-02-13T11:46:51.017Z,14.45
2023-02-13T11:49:40.107Z,14.95
2023-02-13T11:52:30.324Z,16.10
2023-02-13T11:55:30.510Z,15.27
2023-02-13T11:58:25.895Z,15.20
2023-02-13T12:01:28.334Z,15.07
2023-02-13T12:04:17.794Z,14.40
2023-02-13T12:07:13.840Z,16.13
2023-02-13T12:10:03.939Z,15.27
2023-02-13T12:12:56.427Z,16.70
2023-02-13T12:15:44.439Z,16.23
2023-02-13T12:18:36.481Z,14.55
2023-02-13T12:21:38.317Z,15.40
2023-02-13T12:24:44.062Z,15.15
2023-02-13T12:27:42.996Z,13.77
2023-02-13T12:31:00.032Z,14.40
2023-02-13T12:34:16.029Z,14.70
2023-02-13T12:37:16.789Z,13.95
2023-02-13T12:40:27.471Z,15.20
2023-02-13T12:43:41.360Z,13.23
2023-02-13T12:46:37.653Z,15.43
2023-02-13T12:49:49.954Z,14.80
2023-02-13T12:52:50.113Z,14.02
2023-02-13T12:55:50.116Z,13.93
2023-02-13T12:58:58.302Z,14.75
2023-02-13T13:02:00.468Z,15.43
2023-02-13T13:04:58.039Z,15.05
2023-02-13T13:08:10.095Z,13.45
2023-02-13T13:11:15.839Z,14.27
2023-02-13T13:14:12.205Z,14.63
2023-02-13T13:17:08.422Z,14.60
2023-02-13T13:20:02.679Z,14.85
2023-02-13T13:22:53.770Z,14.90
2023-02-13T13:25:48.682Z,15.38
2023-02-13T13:28:39.550Z,15.40
2023-02-13T13:31:27.884Z,14.88
2023-02-13T13:34:21.790Z,14.90
2023-02-13T13:37:15.492Z,14.38
2023-02-13T13:40:17.394Z,15.02
2023-02-13T13:43:08.903Z,15.70
2023-02-13T13:46:07.406Z,14.98
2023-02-13T13:49:07.709Z,14.10
2023-02-13T13:52:11.076Z,15.05
2023-02-13T13:55:00.528Z,14.90
2023-02-13T13:58:01.172Z,14.20
2023-02-13T14:00:48.046Z,14.40
2023-02-13T14:03:38.121Z,14.50
2023-02-13T14:06:27.057Z,15.93
2023-02-13T14:09:40.083Z,14.27
2023-02-13T14:12:47.319Z,14.57
2023-02-13T14:15:55.009Z,15.00
2023-02-13T14:18:48.029Z,14.43
2023-02-13T14:21:34.684Z,15.60
2023-02-13T14:24:23.572Z,13.77
2023-02-13T14:27:23.143Z,14.82
2023-02-13T14:30:28.639Z,14.60
2023-02-13T14:33:26.792Z,15.27
2023-02-13T14:36:23.144Z,15.10
2023-02-13T14:39:29.081Z,14.45
2023-02-13T14:42:28.448Z,13.80
2023-02-13T14:45:19.649Z,14.40
2023-02-13T14:48:15.055Z,14.90
2023-02-13T14:51:02.815Z,13.88
2023-02-13T14:53:55.669Z,14.18
2023-02-13T14:56:46.016Z,15.27
2023-02-13T14:59:37.728Z,13.57
2023-02-13T15:02:25.492Z,14.65
2023-02-13T15:05:15.818Z,13.52
2023-02-13T15:08:08.668Z,14.75
2023-02-13T15:10:57.757Z,14.18
2023-02-13T15:13:44.419Z,14.77
2023-02-13T15:16:32.621Z,14.07
2023-02-13T15:19:21.931Z,14.90
2023-02-13T15:22:09.036Z,15.52
2023-02-13T15:24:55.741Z,15.50
2023-02-13T15:27:44.851Z,15.18
2023-02-13T15:30:33.085Z,14.65
2023-02-13T15:33:23.026Z,14.07
2023-02-13T15:36:19.462Z,14.75
2023-02-13T15:39:10.380Z,13.70
2023-02-13T15:41:59.950Z,13.57
2023-02-13T15:44:49.643Z,14.00
2023-02-13T15:47:36.479Z,14.48
2023-02-13T15:50:30.795Z,13.27
2023-02-13T15:53:19.862Z,13.05
2023-02-13T15:56:07.076Z,13.20
2023-02-13T15:58:55.485Z,12.45
2023-02-13T16:01:44.377Z,12.38
2023-02-13T16:04:31.683Z,13.68
2023-02-13T16:07:20.552Z,13.95
2023-02-13T16:10:17.547Z,13.55
2023-02-13T16:13:06.977Z,12.93
2023-02-13T16:15:53.689Z,13.05
2023-02-13T16:18:41.605Z,14.15
2023-02-13T16:21:31.391Z,13.77
2023-02-13T16:24:20.579Z,13.15
2023-02-13T16:27:14.483Z,13.48
2023-02-13T16:30:03.875Z,13.25
2023-02-13T16:32:50.727Z,16.90
2023-02-13T16:35:39.490Z,13.95
2023-02-13T16:38:35.708Z,14.23
2023-02-13T16:41:33.805Z,13.52
2023-02-13T16:44:25.562Z,39.15
2023-02-13T16:47:22.385Z,20.35
2023-02-13T16:50:15.667Z,18.40
2023-02-13T16:53:03.811Z,15.75
2023-02-13T16:55:58.484Z,13.23
2023-02-13T16:58:46.153Z,14.07
2023-02-13T17:01:32.819Z,13.95
2023-02-13T17:04:24.066Z,15.07
2023-02-13T17:07:14.287Z,17.10
2023-02-13T17:10:03.058Z,19.40
2023-02-13T17:12:50.523Z,20.13
2023-02-13T17:15:41.779Z,18.90
2023-02-13T17:18:29.059Z,17.40
2023-02-13T17:21:15.415Z,17.10
2023-02-13T17:24:03.559Z,17.48
2023-02-13T17:26:49.964Z,17.98
2023-02-13T17:29:36.585Z,16.48
2023-02-13T17:32:26.995Z,17.02
2023-02-13T17:38:00.922Z,16.55
2023-02-13T17:40:48.032Z,16.98
2023-02-13T17:43:34.607Z,17.75
2023-02-13T17:46:21.215Z,18.10
2023-02-13T17:49:09.259Z,20.77
2023-02-13T17:51:55.995Z,22.58
2023-02-13T17:54:43.960Z,22.70
2023-02-13T17:57:30.532Z,23.85
2023-02-13T18:00:19.018Z,19.73
2023-02-13T18:03:05.573Z,20.20
2023-02-13T18:05:53.247Z,20.88
2023-02-13T18:08:39.939Z,21.92
2023-02-13T18:11:26.512Z,20.77
2023-02-13T18:14:13.331Z,19.27
2023-02-13T18:17:00.731Z,19.25
2023-02-13T18:19:47.937Z,21.00
2023-02-13T18:22:36.121Z,21.33
2023-02-13T18:25:23.649Z,21.98
2023-02-13T18:28:10.563Z,22.00
2023-02-13T18:30:57.793Z,23.33
2023-02-13T18:33:44.789Z,21.10
2023-02-13T18:36:31.683Z,21.83
2023-02-13T18:45:05.597Z,22.63
2023-02-13T18:47:53.867Z,25.23
2023-02-13T18:50:41.041Z,22.75
2023-02-13T18:53:27.829Z,22.17
2023-02-13T18:56:15.263Z,21.75
2023-02-13T18:59:01.898Z,22.60
2023-02-13T19:01:48.702Z,21.52
2023-02-13T19:04:36.716Z,20.65
2023-02-13T19:07:23.360Z,21.15
2023-02-13T19:10:10.814Z,20.25
2023-02-13T19:12:57.425Z,19.42
2023-02-13T19:15:44.071Z,18.70
2023-02-13T19:18:30.795Z,18.58
2023-02-13T19:21:19.740Z,19.95
2023-02-13T19:24:08.950Z,19.85
2023-02-13T19:26:55.315Z,19.10
2023-02-13T19:29:42.038Z,19.30
2023-02-13T19:32:28.836Z,19.58
2023-02-13T19:35:15.556Z,18.67
2023-02-13T19:38:03.775Z,19.27
2023-02-13T19:40:50.727Z,17.60
2023-02-13T19:43:37.873Z,18.13
2023-02-13T19:46:26.252Z,16.17
2023-02-13T19:49:12.820Z,17.02
2023-02-13T19:51:59.913Z,16.52
2023-02-13T19:54:49.027Z,17.23
2023-02-13T19:57:35.631Z,19.55
2023-02-13T20:00:22.819Z,19.70
2023-02-13T20:03:09.513Z,25.00
2023-02-13T20:05:55.978Z,24.40
2023-02-13T20:08:43.254Z,24.40
2023-02-13T20:11:31.376Z,22.85
2023-02-13T20:14:18.414Z,22.30
2023-02-13T20:17:05.813Z,21.10
2023-02-13T20:19:52.856Z,20.58
2023-02-13T20:22:39.485Z,19.83
2023-02-13T20:25:29.973Z,19.60
2023-02-13T20:28:17.879Z,44.55
2023-02-13T20:31:10.730Z,21.23
2023-02-13T20:33:58.820Z,29.98
2023-02-13T20:36:45.404Z,26.30
2023-02-13T20:39:32.328Z,23.23
2023-02-13T20:42:18.900Z,23.58
2023-02-13T20:45:07.879Z,21.63
2023-02-13T20:47:54.525Z,21.65
2023-02-13T20:50:41.330Z,21.52
2023-02-13T20:53:28.199Z,21.23
2023-02-13T20:56:16.549Z,22.17
2023-02-13T20:59:05.272Z,19.50
2023-02-13T21:01:52.985Z,19.42
2023-02-13T21:04:39.938Z,18.92
2023-02-13T21:07:26.588Z,18.63
2023-02-13T21:10:13.286Z,18.70
2023-02-13T21:13:00.028Z,19.52
2023-02-13T21:15:48.980Z,18.92
2023-02-13T21:18:37.538Z,19.67
2023-02-13T21:21:25.987Z,18.63
2023-02-13T21:24:15.191Z,20.23
2023-02-13T21:27:01.640Z,20.40
2023-02-13T21:29:48.070Z,18.90
2023-02-13T21:32:34.499Z,20.20
2023-02-13T21:35:22.468Z,19.95
2023-02-13T21:38:09.019Z,19.13
2023-02-13T21:40:56.931Z,19.38
2023-02-13T21:43:46.701Z,20.85
2023-02-13T21:46:34.417Z,21.23
2023-02-13T21:49:20.852Z,22.85
2023-02-13T21:52:08.950Z,21.85
2023-02-13T21:54:55.119Z,23.58
2023-02-13T21:57:41.805Z,23.15
2023-02-13T22:00:28.378Z,21.80
2023-02-13T22:03:15.130Z,22.08
2023-02-13T22:06:01.623Z,23.23
2023-02-13T22:08:50.181Z,23.10
2023-02-13T22:11:37.255Z,20.75
2023-02-13T22:14:23.771Z,20.25
2023-02-13T22:17:10.300Z,21.38
2023-02-13T22:19:56.800Z,20.27
2023-02-13T22:22:43.220Z,19.02
2023-02-13T22:25:31.120Z,19.40
2023-02-13T22:28:18.282Z,19.02
2023-02-13T22:31:09.212Z,19.17
2023-02-13T22:34:05.384Z,18.35
2023-02-13T22:36:52.043Z,19.35
2023-02-13T22:39:39.609Z,20.45
2023-02-13T22:42:27.421Z,23.08
2023-02-13T22:45:14.059Z,22.88
2023-02-13T22:48:00.500Z,24.35
2023-02-13T22:50:46.885Z,25.73
2023-02-13T22:53:34.148Z,23.00
2023-02-13T22:56:21.157Z,22.40
2023-02-13T22:59:10.194Z,23.58
2023-02-13T23:02:13.156Z,20.48
2023-02-13T23:04:59.972Z,17.73
2023-02-13T23:07:46.421Z,20.60
2023-02-13T23:10:33.064Z,21.65
2023-02-13T23:13:18.422Z,20.70
2023-02-13T23:16:13.371Z,20.80
2023-02-13T23:18:59.051Z,18.98
2023-02-13T23:21:45.332Z,19.10
2023-02-13T23:24:32.266Z,19.52
2023-02-13T23:27:18.605Z,19.25
2023-02-13T23:30:08.555Z,18.50
2023-02-13T23:32:57.292Z,18.90
2023-02-13T23:35:43.592Z,16.90
2023-02-13T23:38:30.212Z,17.15
2023-02-13T23:41:16.664Z,16.70
2023-02-13T23:44:03.400Z,15.43
2023-02-13T23:46:49.942Z,16.73
2023-02-13T23:49:37.880Z,16.40
2023-02-13T23:52:24.465Z,16.45
2023-02-13T23:55:10.935Z,16.50
2023-02-13T23:57:57.457Z,16.95
